createdAt,value
2022-12-27T00:00:33.566Z,7.49
2022-12-27T00:05:35.289Z,7.58
2022-12-27T00:10:37.256Z,7.66
2022-12-27T00:15:38.960Z,7.72
2022-12-27T00:20:40.667Z,7.77
2022-12-27T00:25:42.542Z,7.80
2022-12-27T00:30:44.306Z,7.81
2022-12-27T00:35:45.957Z,7.80
2022-12-27T00:40:48.083Z,7.80
2022-12-27T00:45:50.435Z,7.79
2022-12-27T00:50:58.716Z,7.75
2022-12-27T00:56:01.165Z,7.71
2022-12-27T01:01:15.575Z,7.68
2022-12-27T01:06:21.485Z,7.70
2022-12-27T01:11:24.433Z,7.75
2022-12-27T01:16:28.346Z,7.78
2022-12-27T01:21:31.043Z,7.80
2022-12-27T01:26:32.798Z,7.77
2022-12-27T01:31:35.618Z,7.56
2022-12-27T01:36:37.530Z,7.33
2022-12-27T01:42:01.731Z,7.20
2022-12-27T01:47:05.703Z,7.12
2022-12-27T01:52:11.271Z,7.09
2022-12-27T01:57:13.019Z,7.07
2022-12-27T02:02:15.089Z,7.07
2022-12-27T02:07:18.597Z,7.08
2022-12-27T02:12:21.260Z,7.07
2022-12-27T02:17:27.132Z,7.06
2022-12-27T02:23:05.754Z,7.07
2022-12-27T02:28:30.522Z,7.09
2022-12-27T02:33:38.956Z,7.11
2022-12-27T02:38:45.237Z,7.12
2022-12-27T02:44:06.298Z,7.09
2022-12-27T02:49:53.753Z,7.08
2022-12-27T02:55:08.295Z,7.03
2022-12-27T03:00:39.151Z,6.95
2022-12-27T03:06:17.866Z,6.91
2022-12-27T03:11:38.885Z,6.84
2022-12-27T03:16:55.756Z,6.79
2022-12-27T03:22:17.297Z,6.73
2022-12-27T03:27:32.267Z,6.61
2022-12-27T03:32:58.405Z,6.38
2022-12-27T03:38:05.257Z,-77.27
2022-12-27T03:43:16.188Z,-101.26
2022-12-27T03:48:22.746Z,5.20
2022-12-27T03:53:38.367Z,4.67
2022-12-27T03:58:40.273Z,4.36
2022-12-27T04:03:42.198Z,4.24
2022-12-27T04:09:02.758Z,4.14
2022-12-27T04:14:23.153Z,4.08
2022-12-27T04:19:43.613Z,4.05
2022-12-27T04:25:04.266Z,4.05
2022-12-27T04:30:25.332Z,4.01
2022-12-27T04:35:27.189Z,3.98
2022-12-27T04:40:47.655Z,3.96
2022-12-27T04:46:08.371Z,3.97
2022-12-27T04:51:28.969Z,3.94
2022-12-27T04:56:30.680Z,3.90
2022-12-27T05:01:50.975Z,3.86
2022-12-27T05:06:53.515Z,3.79
2022-12-27T05:12:14.025Z,3.74
2022-12-27T05:17:16.001Z,3.71
2022-12-27T05:22:36.452Z,3.67
2022-12-27T05:27:38.154Z,3.65
2022-12-27T05:32:39.805Z,3.59
2022-12-27T05:37:41.492Z,3.53
2022-12-27T05:42:43.205Z,3.47
2022-12-27T05:47:45.108Z,3.44
2022-12-27T05:52:46.968Z,3.40
2022-12-27T05:57:48.773Z,3.33
2022-12-27T06:02:50.583Z,3.24
2022-12-27T06:07:52.462Z,3.15
2022-12-27T06:12:54.138Z,3.07
2022-12-27T06:17:56.153Z,3.04
2022-12-27T06:23:00.232Z,3.06
2022-12-27T06:28:02.064Z,3.04
2022-12-27T06:33:03.865Z,3.01
2022-12-27T06:38:05.626Z,2.96
2022-12-27T06:43:07.491Z,2.89
2022-12-27T06:48:09.302Z,2.77
2022-12-27T06:53:11.039Z,2.69
2022-12-27T06:58:13.721Z,2.62
2022-12-27T07:03:15.452Z,2.52
2022-12-27T07:08:17.371Z,2.43
2022-12-27T07:13:19.491Z,2.35
2022-12-27T07:18:21.208Z,2.31
2022-12-27T07:23:22.939Z,2.27
2022-12-27T07:28:25.230Z,2.24
2022-12-27T07:33:26.926Z,2.29
2022-12-27T07:38:29.022Z,2.29
2022-12-27T07:43:33.723Z,2.29
2022-12-27T07:48:36.490Z,2.34
2022-12-27T07:53:38.211Z,2.35
2022-12-27T07:58:42.508Z,2.38
2022-12-27T08:03:44.807Z,2.42
2022-12-27T08:08:47.417Z,2.43
2022-12-27T08:13:49.375Z,2.48
2022-12-27T08:18:53.131Z,2.59
2022-12-27T08:23:54.928Z,2.73
2022-12-27T08:28:56.740Z,2.85
2022-12-27T08:33:58.925Z,2.92
2022-12-27T08:39:00.860Z,2.97
2022-12-27T08:44:02.577Z,3.03
2022-12-27T08:49:05.321Z,3.11
2022-12-27T08:54:07.252Z,3.21
2022-12-27T08:59:08.928Z,3.31
2022-12-27T09:04:10.692Z,3.42
2022-12-27T09:09:13.646Z,3.54
2022-12-27T09:14:15.402Z,3.70
2022-12-27T09:19:17.145Z,3.81
2022-12-27T09:24:19.002Z,3.90
2022-12-27T09:29:21.196Z,4.04
2022-12-27T09:34:22.887Z,4.13
2022-12-27T09:39:24.554Z,4.27
2022-12-27T09:44:47.575Z,4.41
2022-12-27T09:49:55.208Z,4.51
2022-12-27T09:55:05.385Z,4.53
2022-12-27T10:00:35.018Z,4.62
2022-12-27T10:05:39.648Z,4.83
2022-12-27T10:10:57.032Z,-101.43
2022-12-27T10:16:27.867Z,-128.00
2022-12-27T10:21:34.368Z,-128.00
2022-12-27T10:26:38.669Z,-128.00
2022-12-27T10:31:43.039Z,-128.00
2022-12-27T10:36:45.463Z,-128.00
2022-12-27T10:42:10.079Z,-128.00
2022-12-27T10:47:11.807Z,-128.00
2022-12-27T10:52:21.568Z,-128.00
2022-12-27T10:57:33.463Z,-128.00
2022-12-27T11:02:35.533Z,-128.00
2022-12-27T11:07:37.782Z,-128.00
2022-12-27T11:12:39.461Z,-128.00
2022-12-27T11:17:50.258Z,-128.00
2022-12-27T11:23:10.193Z,-128.00
2022-12-27T11:28:34.363Z,-128.00
2022-12-27T11:33:41.176Z,-128.00
2022-12-27T11:38:45.082Z,-128.00
2022-12-27T11:44:06.008Z,-128.00
2022-12-27T11:49:17.912Z,-128.00
2022-12-27T11:54:41.501Z,-128.00
2022-12-27T12:00:06.689Z,-128.00
2022-12-27T12:05:33.439Z,-128.00
2022-12-27T12:10:44.244Z,-128.00
2022-12-27T12:16:17.698Z,-128.00
2022-12-27T12:21:41.243Z,-128.00
2022-12-27T12:27:08.116Z,-128.00
2022-12-27T12:32:45.552Z,-128.00
2022-12-27T12:37:57.092Z,-128.00
2022-12-27T12:43:16.999Z,-128.00
2022-12-27T12:48:24.510Z,-128.00
2022-12-27T12:53:49.018Z,-128.00
2022-12-27T12:59:13.260Z,-128.00
2022-12-27T13:04:49.772Z,-128.00
2022-12-27T13:10:00.698Z,-128.00
2022-12-27T13:15:17.975Z,-128.00
2022-12-27T13:20:28.557Z,-128.00
2022-12-27T13:25:58.785Z,-128.00
2022-12-27T13:31:07.752Z,-128.00
2022-12-27T13:36:24.440Z,-128.00
2022-12-27T13:41:30.567Z,-128.00
2022-12-27T13:47:18.563Z,-128.00
2022-12-27T13:52:46.505Z,-128.00
2022-12-27T13:58:08.993Z,-128.00
2022-12-27T14:03:43.456Z,-128.00
2022-12-27T14:09:10.230Z,-128.00
2022-12-27T14:14:16.723Z,-128.00
2022-12-27T14:19:41.633Z,-128.00
2022-12-27T14:25:14.793Z,-128.00
2022-12-27T14:30:38.527Z,-128.00
2022-12-27T14:36:17.898Z,-128.00
2022-12-27T14:41:54.062Z,-128.00
2022-12-27T14:47:18.099Z,-128.00
2022-12-27T14:52:44.239Z,-128.00
2022-12-27T14:57:55.566Z,-128.00
2022-12-27T15:03:17.835Z,-128.00
2022-12-27T15:08:40.808Z,-128.00
2022-12-27T15:14:17.679Z,-128.00
2022-12-27T15:19:40.338Z,-128.00
2022-12-27T15:25:06.095Z,-128.00
2022-12-27T15:30:20.961Z,-128.00
2022-12-27T15:35:33.533Z,-128.00
2022-12-27T15:40:35.156Z,-128.00
2022-12-27T15:46:08.119Z,-128.00
2022-12-27T15:51:23.367Z,-128.00
2022-12-27T15:57:03.630Z,-128.00
2022-12-27T16:02:17.789Z,-128.00
2022-12-27T16:07:52.197Z,-128.00
2022-12-27T16:12:55.933Z,-128.00
2022-12-27T16:17:57.738Z,-128.00
2022-12-27T16:23:02.681Z,-128.00
2022-12-27T16:28:16.260Z,-128.00
2022-12-27T16:33:27.156Z,-128.00
2022-12-27T16:38:31.942Z,-128.00
2022-12-27T16:43:49.151Z,-128.00
2022-12-27T16:49:34.371Z,-128.00
2022-12-27T16:55:20.453Z,-128.00
2022-12-27T17:00:42.481Z,-128.00
2022-12-27T17:06:21.775Z,-128.00
2022-12-27T17:11:39.032Z,-128.00
2022-12-27T17:16:46.325Z,-128.00
2022-12-27T17:21:56.731Z,-128.00
2022-12-27T17:27:16.423Z,-128.00
2022-12-27T17:32:39.967Z,-128.00
2022-12-27T17:38:06.395Z,-128.00
2022-12-27T17:43:56.738Z,-128.00
2022-12-27T17:48:58.807Z,-128.00
2022-12-27T17:54:42.790Z,-128.00
2022-12-27T17:59:50.306Z,-128.00
2022-12-27T18:04:56.186Z,-128.00
2022-12-27T18:10:05.959Z,-128.00
2022-12-27T18:15:26.173Z,-128.00
2022-12-27T18:20:28.085Z,-128.00
2022-12-27T18:25:32.714Z,-128.00
2022-12-27T18:30:41.211Z,-128.00
2022-12-27T18:35:48.156Z,-128.00
2022-12-27T18:41:05.611Z,-128.00
2022-12-27T18:46:12.516Z,-128.00
2022-12-27T18:51:15.071Z,-128.00
2022-12-27T18:56:32.856Z,-128.00
2022-12-27T19:01:41.948Z,-128.00
2022-12-27T19:06:55.999Z,-128.00
2022-12-27T19:12:01.793Z,-128.00
2022-12-27T19:17:10.628Z,-128.00
2022-12-27T19:22:36.857Z,-128.00
2022-12-27T19:27:38.694Z,-128.00
2022-12-27T19:32:40.430Z,-128.00
2022-12-27T19:37:42.111Z,-128.00
2022-12-27T19:42:45.532Z,-128.00
2022-12-27T19:47:50.671Z,-128.00
2022-12-27T19:52:54.056Z,-128.00
2022-12-27T19:57:57.069Z,-128.00
2022-12-27T20:02:58.955Z,-128.00
2022-12-27T20:08:00.809Z,-128.00
2022-12-27T20:13:02.620Z,-128.00
2022-12-27T20:18:04.299Z,-128.00
2022-12-27T20:23:06.058Z,-128.00
2022-12-27T20:28:08.274Z,-128.00
2022-12-27T20:33:10.403Z,-128.00
2022-12-27T20:38:12.643Z,-128.00
2022-12-27T20:43:14.777Z,-128.00
2022-12-27T20:48:16.570Z,-128.00
2022-12-27T20:53:18.498Z,-128.00
2022-12-27T20:58:20.208Z,-128.00
2022-12-27T21:03:22.114Z,-128.00
2022-12-27T21:08:23.820Z,-128.00
2022-12-27T21:15:53.908Z,-128.00
2022-12-27T21:21:19.716Z,-128.00
2022-12-27T21:26:25.360Z,-128.00
2022-12-27T21:31:27.896Z,-128.00
2022-12-27T21:36:32.144Z,-128.00
2022-12-27T21:41:36.251Z,-128.00
2022-12-27T21:46:40.671Z,-128.00
2022-12-27T21:51:44.056Z,-128.00
2022-12-27T21:56:46.213Z,-128.00
2022-12-27T22:01:51.416Z,-128.00
2022-12-27T22:06:54.334Z,-128.00
2022-12-27T22:11:56.067Z,-128.00
2022-12-27T22:17:00.201Z,-128.00
2022-12-27T22:22:01.900Z,-128.00
2022-12-27T22:27:03.701Z,-128.00
2022-12-27T22:32:06.109Z,-128.00
2022-12-27T22:37:07.820Z,-128.00
2022-12-27T22:42:09.492Z,-128.00
2022-12-27T22:47:27.946Z,-128.00
2022-12-27T22:52:30.199Z,-128.00
2022-12-27T22:57:31.867Z,-128.00
2022-12-27T23:02:33.658Z,-128.00
2022-12-27T23:08:05.653Z,-128.00
2022-12-27T23:12:57.146Z,-128.00
2022-12-27T23:17:59.067Z,-128.00
2022-12-27T23:23:00.736Z,-128.00
2022-12-27T23:28:02.406Z,-128.00
2022-12-27T23:33:04.232Z,-128.00
2022-12-27T23:38:06.159Z,-128.00
2022-12-27T23:43:42.030Z,-128.00
2022-12-27T23:48:29.473Z,-128.00
2022-12-27T23:53:31.200Z,-128.00
2022-12-27T23:58:33.518Z,-128.00
